Time,TemperatureF,DewpointF,PressureIn,WindDirection,WindDirectionDegrees,WindSpeedMPH,WindSpeedGustMPH,Humidity,HourlyPrecipIn,Conditions,Clouds,dailyrainin,SoftwareType,DateUTC
2013-09-15 00:13:00,57.4,57.1,29.93,NNE,22,6.3,-999.0,99,-99.99,,,0.01,Acu-Link.com,2013-09-15 06:13:00,
2013-09-15 00:28:00,57.6,57.3,29.92,North,0,5.1,-999.0,99,-99.99,,,0.01,Acu-Link.com,2013-09-15 06:28:00,
2013-09-15 00:43:00,57.6,57.3,29.93,WNW,292,4.3,-999.0,99,-99.99,,,0.11,Acu-Link.com,2013-09-15 06:43:00,
2013-09-15 00:58:00,57.6,57.3,29.94,ESE,112,3.1,-999.0,99,-99.99,,,0.14,Acu-Link.com,2013-09-15 06:58:00,
2013-09-15 01:13:00,57.4,57.1,29.92,NNE,22,4.3,-999.0,99,-99.99,,,0.22,Acu-Link.com,2013-09-15 07:13:00,
2013-09-15 01:29:00,57.2,56.9,29.92,ENE,67,2.7,-999.0,99,-99.99,,,0.22,Acu-Link.com,2013-09-15 07:29:00,
2013-09-15 01:44:00,57.2,56.9,29.92,WNW,292,2.7,-999.0,99,-99.99,,,0.22,Acu-Link.com,2013-09-15 07:44:00,
2013-09-15 01:59:00,57.2,56.9,29.94,ESE,112,4.3,-999.0,99,-99.99,,,0.22,Acu-Link.com,2013-09-15 07:59:00,
2013-09-15 02:14:00,57.4,57.1,29.94,SSE,157,4.7,-999.0,99,-99.99,,,0.28,Acu-Link.com,2013-09-15 08:14:00,
2013-09-15 02:30:00,57.4,57.1,29.93,SE,135,5.1,-999.0,99,-99.99,,,0.28,Acu-Link.com,2013-09-15 08:30:00,
2013-09-15 02:45:00,57.4,57.1,29.91,West,270,3.1,-999.0,99,-99.99,,,0.28,Acu-Link.com,2013-09-15 08:45:00,
2013-09-15 03:00:00,57.4,57.1,29.93,WSW,247,0.0,-999.0,99,-99.99,,,0.29,Acu-Link.com,2013-09-15 09:00:00,
2013-09-15 03:15:00,57.4,57.1,29.92,West,270,1.6,-999.0,99,-99.99,,,0.29,Acu-Link.com,2013-09-15 09:15:00,
2013-09-15 03:30:00,57.2,56.9,29.91,West,270,3.1,-999.0,99,-99.99,,,0.29,Acu-Link.com,2013-09-15 09:30:00,
2013-09-15 03:46:00,57.4,57.1,29.91,WSW,247,1.6,-999.0,99,-99.99,,,0.29,Acu-Link.com,2013-09-15 09:46:00,
2013-09-15 04:01:00,57.4,57.1,29.92,North,0,2.2,-999.0,99,-99.99,,,0.29,Acu-Link.com,2013-09-15 10:01:00,
2013-09-15 04:16:00,57.4,57.1,29.92,ESE,112,3.1,-999.0,99,-99.99,,,0.29,Acu-Link.com,2013-09-15 10:16:00,
2013-09-15 04:31:00,57.2,56.9,29.92,WNW,292,3.8,-999.0,99,-99.99,,,0.29,Acu-Link.com,2013-09-15 10:31:00,
2013-09-15 04:46:00,57.4,57.1,29.93,NNW,337,5.1,-999.0,99,-99.99,,,0.29,Acu-Link.com,2013-09-15 10:46:00,
2013-09-15 05:02:00,57.6,57.3,29.93,NNW,337,4.3,-999.0,99,-99.99,,,0.29,Acu-Link.com,2013-09-15 11:02:00,
2013-09-15 05:17:00,57.6,57.3,29.94,North,0,4.3,-999.0,99,-99.99,,,0.29,Acu-Link.com,2013-09-15 11:17:00,
2013-09-15 05:32:00,57.4,57.1,29.94,North,0,4.3,-999.0,99,-99.99,,,0.29,Acu-Link.com,2013-09-15 11:32:00,
2013-09-15 05:47:00,57.4,57.1,29.94,WSW,247,2.7,-999.0,99,-99.99,,,0.29,Acu-Link.com,2013-09-15 11:47:00,
2013-09-15 06:02:00,57.4,57.1,29.94,SE,135,4.3,-999.0,99,-99.99,,,0.29,Acu-Link.com,2013-09-15 12:02:00,
2013-09-15 06:18:00,57.0,56.7,29.95,NW,315,0.0,-999.0,99,-99.99,,,0.29,Acu-Link.com,2013-09-15 12:18:00,
2013-09-15 06:33:00,56.8,56.6,29.95,North,0,2.7,-999.0,99,-99.99,,,0.29,Acu-Link.com,2013-09-15 12:33:00,
2013-09-15 06:48:00,57.0,56.7,29.95,North,0,4.7,-999.0,99,-99.99,,,0.29,Acu-Link.com,2013-09-15 12:48:00,
2013-09-15 07:03:00,57.4,56.8,29.94,NNW,337,3.1,-999.0,98,-99.99,,,0.29,Acu-Link.com,2013-09-15 13:03:00,
2013-09-15 07:19:00,57.2,56.9,29.96,West,270,0.0,-999.0,99,-99.99,,,0.29,Acu-Link.com,2013-09-15 13:19:00,
2013-09-15 07:34:00,57.6,57.0,29.97,West,270,2.2,-999.0,98,-99.99,,,0.29,Acu-Link.com,2013-09-15 13:34:00,
2013-09-15 07:49:00,59.2,58.0,29.96,NW,315,1.6,-999.0,96,-99.99,,,0.29,Acu-Link.com,2013-09-15 13:49:00,
2013-09-15 08:04:00,61.3,58.7,29.96,NNE,22,1.6,-999.0,91,-99.99,,,0.29,Acu-Link.com,2013-09-15 14:04:00,
2013-09-15 08:19:00,61.2,58.8,29.97,NNW,337,1.1,-999.0,92,-99.99,,,0.29,Acu-Link.com,2013-09-15 14:19:00,
2013-09-15 08:35:00,65.8,58.8,29.97,NNE,22,2.7,-999.0,78,-99.99,,,0.29,Acu-Link.com,2013-09-15 14:35:00,
2013-09-15 08:50:00,62.4,58.5,29.97,NE,45,2.2,-999.0,87,-99.99,,,0.29,Acu-Link.com,2013-09-15 14:50:00,
2013-09-15 09:05:00,63.1,58.9,29.98,NNW,337,3.8,-999.0,86,-99.99,,,0.29,Acu-Link.com,2013-09-15 15:05:00,
2013-09-15 09:20:00,63.9,59.6,29.98,NE,45,4.7,-999.0,86,-99.99,,,0.29,Acu-Link.com,2013-09-15 15:20:00,
2013-09-15 09:35:00,64.4,57.7,29.98,East,90,3.1,-999.0,79,-99.99,,,0.29,Acu-Link.com,2013-09-15 15:35:00,
2013-09-15 09:51:00,64.8,59.1,29.99,ENE,67,2.2,-999.0,82,-99.99,,,0.29,Acu-Link.com,2013-09-15 15:51:00,
2013-09-15 10:06:00,65.5,59.5,29.99,North,0,1.6,-999.0,81,-99.99,,,0.29,Acu-Link.com,2013-09-15 16:06:00,
2013-09-15 10:21:00,66.0,59.3,29.99,East,90,1.6,-999.0,79,-99.99,,,0.29,Acu-Link.com,2013-09-15 16:21:00,
2013-09-15 10:36:00,66.6,59.1,29.99,West,270,1.6,-999.0,77,-99.99,,,0.29,Acu-Link.com,2013-09-15 16:36:00,
2013-09-15 10:51:00,67.3,58.3,29.99,WSW,247,3.8,-999.0,73,-99.99,,,0.29,Acu-Link.com,2013-09-15 16:51:00,
2013-09-15 11:07:00,68.7,58.1,29.99,ENE,67,2.2,-999.0,69,-99.99,,,0.29,Acu-Link.com,2013-09-15 17:07:00,
2013-09-15 11:22:00,68.4,57.0,29.99,West,270,1.6,-999.0,67,-99.99,,,0.29,Acu-Link.com,2013-09-15 17:22:00,
2013-09-15 11:37:00,70.2,58.7,29.99,WNW,292,2.7,-999.0,67,-99.99,,,0.29,Acu-Link.com,2013-09-15 17:37:00,
2013-09-15 11:52:00,69.4,59.2,29.99,ENE,67,2.7,-999.0,70,-99.99,,,0.29,Acu-Link.com,2013-09-15 17:52:00,
2013-09-15 12:08:00,71.1,60.0,29.98,NNE,22,2.2,-999.0,68,-99.99,,,0.29,Acu-Link.com,2013-09-15 18:08:00,
2013-09-15 12:23:00,71.8,58.9,29.99,ESE,112,2.7,-999.0,64,-99.99,,,0.29,Acu-Link.com,2013-09-15 18:23:00,
2013-09-15 12:38:00,72.9,57.2,29.98,ESE,112,3.1,-999.0,58,-99.99,,,0.29,Acu-Link.com,2013-09-15 18:38:00,
2013-09-15 12:53:00,73.4,56.7,29.98,WNW,292,2.2,-999.0,56,-99.99,,,0.29,Acu-Link.com,2013-09-15 18:53:00,
2013-09-15 13:08:00,75.6,57.7,29.98,East,90,5.8,-999.0,54,-99.99,,,0.29,Acu-Link.com,2013-09-15 19:08:00,
2013-09-15 13:24:00,74.5,56.7,29.97,East,90,4.7,-999.0,54,-99.99,,,0.29,Acu-Link.com,2013-09-15 19:24:00,
2013-09-15 13:39:00,76.1,58.7,29.97,SE,135,2.2,-999.0,55,-99.99,,,0.29,Acu-Link.com,2013-09-15 19:39:00,
2013-09-15 13:54:00,76.6,56.6,29.96,ESE,112,4.3,-999.0,50,-99.99,,,0.29,Acu-Link.com,2013-09-15 19:54:00,
2013-09-15 14:09:00,78.4,56.5,29.95,South,180,3.8,-999.0,47,-99.99,,,0.29,Acu-Link.com,2013-09-15 20:09:00,
2013-09-15 14:24:00,76.8,55.6,29.96,WSW,247,3.8,-999.0,48,-99.99,,,0.29,Acu-Link.com,2013-09-15 20:24:00,
2013-09-15 14:40:00,75.7,54.6,29.95,West,270,2.7,-999.0,48,-99.99,,,0.29,Acu-Link.com,2013-09-15 20:40:00,
2013-09-15 14:55:00,75.7,55.2,29.94,SW,225,0.0,-999.0,49,-99.99,,,0.29,Acu-Link.com,2013-09-15 20:55:00,
2013-09-15 15:10:00,77.9,55.4,29.93,ESE,112,1.1,-999.0,46,-99.99,,,0.29,Acu-Link.com,2013-09-15 21:10:00,
2013-09-15 15:25:00,78.6,53.6,29.93,ESE,112,3.1,-999.0,42,-99.99,,,0.29,Acu-Link.com,2013-09-15 21:25:00,
2013-09-15 15:40:00,78.4,53.4,29.93,SSE,157,3.1,-999.0,42,-99.99,,,0.29,Acu-Link.com,2013-09-15 21:40:00,
2013-09-15 15:56:00,78.4,54.7,29.91,SE,135,3.1,-999.0,44,-99.99,,,0.29,Acu-Link.com,2013-09-15 21:56:00,
2013-09-15 16:11:00,79.3,53.6,29.92,South,180,4.7,-999.0,41,-99.99,,,0.29,Acu-Link.com,2013-09-15 22:11:00,
2013-09-15 16:26:00,80.2,52.3,29.91,SSW,202,3.1,-999.0,38,-99.99,,,0.29,Acu-Link.com,2013-09-15 22:26:00,
2013-09-15 16:41:00,78.8,51.0,29.91,ENE,67,3.8,-999.0,38,-99.99,,,0.29,Acu-Link.com,2013-09-15 22:41:00,
2013-09-15 16:57:00,79.5,49.4,29.91,SSW,202,2.7,-999.0,35,-99.99,,,0.29,Acu-Link.com,2013-09-15 22:57:00,
2013-09-15 17:12:00,79.5,50.2,29.91,ESE,112,2.7,-999.0,36,-99.99,,,0.29,Acu-Link.com,2013-09-15 23:12:00,
2013-09-15 17:27:00,77.7,51.5,29.91,ESE,112,2.7,-999.0,40,-99.99,,,0.29,Acu-Link.com,2013-09-15 23:27:00,
2013-09-15 17:42:00,79.9,50.5,29.91,South,180,2.7,-999.0,36,-99.99,,,0.29,Acu-Link.com,2013-09-15 23:42:00,
2013-09-15 17:57:00,83.3,51.2,29.92,SE,135,4.3,-999.0,33,-99.99,,,0.29,Acu-Link.com,2013-09-15 23:57:00,
2013-09-15 18:13:00,81.0,51.5,29.92,ESE,112,0.0,-999.0,36,-99.99,,,0.29,Acu-Link.com,2013-09-16 00:13:00,
2013-09-15 18:28:00,79.0,51.9,29.92,South,180,3.1,-999.0,39,-99.99,,,0.29,Acu-Link.com,2013-09-16 00:28:00,
2013-09-15 18:43:00,77.4,53.1,29.93,SW,225,2.2,-999.0,43,-99.99,,,0.29,Acu-Link.com,2013-09-16 00:43:00,
2013-09-15 18:58:00,76.8,53.9,29.92,SSE,157,3.1,-999.0,45,-99.99,,,0.29,Acu-Link.com,2013-09-16 00:58:00,
2013-09-15 19:13:00,74.3,53.9,29.93,SSW,202,0.0,-999.0,49,-99.99,,,0.29,Acu-Link.com,2013-09-16 01:13:00,
2013-09-15 19:29:00,72.9,54.7,29.93,ESE,112,2.2,-999.0,53,-99.99,,,0.29,Acu-Link.com,2013-09-16 01:29:00,
2013-09-15 19:44:00,71.1,56.0,29.94,SE,135,4.3,-999.0,59,-99.99,,,0.29,Acu-Link.com,2013-09-16 01:44:00,
2013-09-15 19:59:00,69.8,54.8,29.95,South,180,2.7,-999.0,59,-99.99,,,0.29,Acu-Link.com,2013-09-16 01:59:00,
2013-09-15 20:14:00,69.1,55.1,29.96,ESE,112,0.0,-999.0,61,-99.99,,,0.29,Acu-Link.com,2013-09-16 02:14:00,
2013-09-15 20:29:00,68.4,54.8,29.96,ESE,112,0.0,-999.0,62,-99.99,,,0.29,Acu-Link.com,2013-09-16 02:29:00,
2013-09-15 20:45:00,67.5,54.0,29.97,SE,135,1.6,-999.0,62,-99.99,,,0.29,Acu-Link.com,2013-09-16 02:45:00,
2013-09-15 21:00:00,67.6,53.7,29.97,South,180,1.1,-999.0,61,-99.99,,,0.29,Acu-Link.com,2013-09-16 03:00:00,
2013-09-15 21:15:00,66.9,54.3,29.98,South,180,0.0,-999.0,64,-99.99,,,0.29,Acu-Link.com,2013-09-16 03:15:00,
2013-09-15 21:30:00,66.6,54.0,29.97,South,180,0.0,-999.0,64,-99.99,,,0.29,Acu-Link.com,2013-09-16 03:30:00,
2013-09-15 21:46:00,65.5,54.2,29.99,West,270,0.0,-999.0,67,-99.99,,,0.29,Acu-Link.com,2013-09-16 03:46:00,
2013-09-15 22:01:00,66.7,55.4,30.00,WSW,247,2.7,-999.0,67,-99.99,,,0.29,Acu-Link.com,2013-09-16 04:01:00,
2013-09-15 22:16:00,67.6,55.0,30.00,South,180,5.1,-999.0,64,-99.99,,,0.29,Acu-Link.com,2013-09-16 04:16:00,
2013-09-15 22:31:00,66.7,55.0,30.00,SSE,157,3.8,-999.0,66,-99.99,,,0.29,Acu-Link.com,2013-09-16 04:31:00,
2013-09-15 22:46:00,66.4,54.3,30.01,ESE,112,3.8,-999.0,65,-99.99,,,0.29,Acu-Link.com,2013-09-16 04:46:00,
2013-09-15 23:02:00,66.0,53.9,30.01,SSE,157,2.7,-999.0,65,-99.99,,,0.29,Acu-Link.com,2013-09-16 05:02:00,
2013-09-15 23:17:00,65.8,54.2,30.01,East,90,4.7,-999.0,66,-99.99,,,0.29,Acu-Link.com,2013-09-16 05:17:00,
2013-09-15 23:32:00,65.7,54.0,30.01,SSE,157,3.1,-999.0,66,-99.99,,,0.29,Acu-Link.com,2013-09-16 05:32:00,
2013-09-15 23:47:00,64.9,54.5,30.02,SSW,202,3.8,-999.0,69,-99.99,,,0.29,Acu-Link.com,2013-09-16 05:47:00,